x

8452944 - Conimicut Light, Ri (cptr1) Weather Station

9:30 - Mon 20th Feb 2017 All times are EST. -5 hours from GMT.

  • Wind
    10mph, 13mph gusts
  • Sea Temp 39°f
  • Ar Temp 38°f
  • Sea Pressure 1027mb
  • 8452944 - Conimicut Light, Ri
  • 8452944 - Conimicut Light, Ri

More Historic Weather Station data

Upgrade to MSW Pro to gain access to the past 30 days of data for over 8000 Wavebouys and Weather Stations around the globe.

Join Pro

Comparision Forecast

View Surf forecast
   
Seg 02/20 9:30 10 13 mph 1027mb 39f 38f
9:24 10 13 mph 1027mb 39f 38f
9:18 11 14 mph 1027mb 39f 38f
9:12 11 13 mph 1026.9mb 39f 38f
9:06 11 14 mph 1026.8mb 39f 38f
9:00 11 13 mph 1026.8mb 39f 38f
8:48 8 10 mph 1026.8mb 39f 38f
8:42 9 11 mph 1026.7mb 39f 38f
8:36 11 15 mph 1026.5mb 39f 38f
8:30 13 16 mph 1026.4mb 39f 38f
8:24 13 16 mph 1026.3mb 39f 38f
8:18 13 15 mph 1026.2mb 39f 39f
8:12 11 15 mph 1026.2mb 39f 39f
8:06 14 15 mph 1026.1mb 39f 39f
8:00 10 13 mph 1026.1mb 39f 39f
7:54 10 11 mph 1026mb 39f 39f
7:48 11 14 mph 1026mb 39f 39f
7:42 10 13 mph 1025.9mb 39f 39f
7:36 11 14 mph 1025.8mb 39f 39f
7:30 11 13 mph 1025.7mb 39f 39f
7:24 11 14 mph 1025.6mb 39f 40f
7:18 14 16 mph 1025.6mb 39f 40f
7:12 13 15 mph 1025.5mb 39f 40f
7:06 11 15 mph 1025.4mb 39f 40f
7:00 14 16 mph 1025.5mb 40f 40f
6:54 13 15 mph 1025.4mb 40f 40f
6:48 13 15 mph 1025.2mb 40f 40f
6:42 11 17 mph 1025.2mb 40f 40f
6:36 11 17 mph 1025.2mb 40f 40f
6:30 11 15 mph 1025.1mb 40f 40f
6:24 10 14 mph 1025.1mb 39f 40f
6:18 11 14 mph 1025mb 39f 40f
6:12 10 13 mph 1025mb 39f 41f
6:06 11 14 mph 1024.9mb 39f 41f
6:00 13 15 mph 1024.7mb 39f 41f
5:54 13 15 mph 1024.5mb 39f 41f
5:48 13 16 mph 1024.3mb 39f 41f
5:42 15 16 mph 1024.1mb 39f 41f
5:36 14 20 mph 1023.9mb 39f 42f
5:30 16 20 mph 1023.7mb 39f 42f
5:24 13 17 mph 1023.5mb 39f 42f
5:18 16 22 mph 1023.3mb 40f 43f
5:12 16 22 mph 1023.1mb 40f 43f
5:06 17 21 mph 1022.8mb 40f 43f
5:00 17 21 mph 1022.6mb 40f 43f
4:54 16 21 mph 1022.5mb 40f 44f
4:48 17 20 mph 1022.3mb 40f 44f
4:42 18 22 mph 1022.1mb 40f 44f
4:36 21 25 mph 1021.9mb 40f 44f
4:30 22 25 mph 1021.7mb 40f 44f
4:24 20 24 mph 1021.6mb 40f 45f
4:18 20 23 mph 1021.5mb 39f 45f
4:12 17 24 mph 1021.4mb 39f 45f
4:06 17 22 mph 1021.4mb 39f 45f
4:00 20 22 mph 1021.4mb 39f 45f
3:54 18 23 mph 1021.2mb 39f 46f
3:48 22 26 mph 1021.1mb 39f 45f
3:42 18 23 mph 1021.1mb 39f 45f
3:36 17 22 mph 1021.1mb 39f 45f
3:30 21 23 mph 1021mb 39f 46f
3:24 20 24 mph 1021mb 39f 46f
3:18 20 22 mph 1021mb 39f 45f
3:12 17 25 mph 1021mb 39f 46f
3:06 23 26 mph 1020.9mb 39f 45f
3:00 20 22 mph 1020.9mb 39f 45f
2:54 22 26 mph 1020.8mb 39f 45f
2:48 21 24 mph 1020.8mb 38f 46f
2:42 20 23 mph 1020.6mb 38f 45f
2:36 22 29 mph 1020.7mb 38f 45f
2:30 17 25 mph 1020.6mb 38f 45f
2:24 21 24 mph 1020.3mb 38f 45f
2:18 18 21 mph 1020.3mb 38f 45f
2:12 14 21 mph 1020.4mb 38f 46f
2:06 21 24 mph 1020.4mb 38f 45f
2:00 21 23 mph 1020.2mb 38f 45f
1:54 17 24 mph 1020.2mb 38f 45f
1:48 18 22 mph 1020.1mb 38f 45f
1:42 17 26 mph 1020.1mb 38f 45f
1:36 14 23 mph 1020mb 38f 45f
1:30 11 20 mph 1020mb 38f 45f
1:24 20 23 mph 1020mb 38f 45f
1:18 10 15 mph 1020.1mb 38f 45f
1:12 17 21 mph 1020.1mb 38f 44f
1:06 20 22 mph 1020.1mb 38f 44f
1:00 18 23 mph 1020.1mb 38f 44f
12:54 21 23 mph 1020.2mb 38f 44f
12:48 16 17 mph 1020.4mb 39f 43f
12:42 15 21 mph 1020.3mb 39f 44f
12:36 17 20 mph 1020.2mb 39f 44f
12:30 14 17 mph 1020.3mb 39f 44f
12:24 15 18 mph 1020.2mb 39f 44f
12:18 13 14 mph 1020.2mb 39f 42f
12:12 10 17 mph 1020.3mb 39f 45f
12:06 15 22 mph 1020.2mb 39f 44f
12:00 16 21 mph 1020.2mb 39f 44f
11:54 17 20 mph 1020.3mb 39f 43f
11:48 15 21 mph 1020.4mb 39f 44f
11:42 14 21 mph 1020.4mb 39f 44f
11:36 18 20 mph 1020.4mb 39f 44f
11:30 17 21 mph 1020.3mb 39f 43f
11:24 14 20 mph 1020.3mb 39f 44f
11:18 15 17 mph 1020.2mb 39f 43f
11:12 16 21 mph 1020.3mb 39f 43f
11:06 14 18 mph 1020.3mb 39f 43f
11:00 14 17 mph 1020.2mb 39f 43f
10:54 14 18 mph 1020.2mb 39f 43f
10:48 10 17 mph 1020.1mb 39f 44f
10:42 16 21 mph 1020.1mb 39f 43f
10:36 18 23 mph 1020.2mb 39f 43f
10:30 18 21 mph 1020.3mb 39f 43f
10:24 18 24 mph 1020.3mb 39f 43f
10:18 20 23 mph 1020.2mb 39f 42f
10:12 20 22 mph 1020.2mb 39f 42f
10:06 22 24 mph 1020.2mb 39f 42f
10:00 23 25 mph 1020.2mb 39f 42f
9:54 20 24 mph 1020.1mb 39f 42f
9:48 18 21 mph 1020.1mb 39f 41f
9:42 17 18 mph 1020mb 39f 41f
9:36 17 20 mph 1020mb 39f 42f
9:30 14 21 mph 1020mb 39f 42f
9:24 16 21 mph 1020mb 39f 42f
9:18 18 22 mph 1020.1mb 39f 42f
9:12 17 21 mph 1020.1mb 39f 42f
9:06 20 24 mph 1020mb 39f 42f
9:00 18 23 mph 1020mb 39f 42f
8:54 16 21 mph 1020.1mb 39f 42f
8:48 17 24 mph 1020.1mb 39f 42f
8:42 18 22 mph 1020mb 39f 41f
8:36 17 20 mph 1020mb 39f 41f
8:30 16 20 mph 1020mb 39f 42f
8:24 16 20 mph 1019.9mb 39f 41f
8:18 15 22 mph 1019.8mb 39f 42f
8:12 16 18 mph 1019.8mb 39f 41f
8:06 14 21 mph 1019.6mb 39f 42f
8:00 15 20 mph 1019.5mb 39f 41f
7:54 15 18 mph 1019.5mb 39f 41f
7:48 13 16 mph 1019.3mb 39f 42f
7:42 13 15 mph 1019.2mb 39f 41f
7:36 13 14 mph 1019mb 39f 42f
7:30 10 13 mph 1018.9mb 39f 42f
7:24 7 10 mph 1018.9mb 38f 42f
7:18 8 10 mph 1018.8mb 38f 41f
7:12 9 10 mph 1018.5mb 38f 41f
7:06 8 10 mph 1018.4mb 38f 41f
7:00 8 9 mph 1018.3mb 38f 40f
6:54 9 11 mph 1018.1mb 39f 40f
6:48 10 11 mph 1018mb 39f 40f
6:42 9 10 mph 1017.8mb 39f 39f
6:36 9 10 mph 1017.7mb 39f 39f
6:30 8 9 mph 1017.6mb 39f 39f
6:24 6 11 mph 1017.5mb 39f 39f
6:18 10 11 mph 1017.4mb 38f 40f
6:12 11
mph
1017.1mb 38f 40f
6:06 11
mph
1017mb 38f 40f
6:00 10 11 mph 1016.8mb 39f 40f
5:54 10 11 mph 1016.8mb 39f 40f
5:48 9 10 mph 1016.7mb 39f 40f
5:42 9 10 mph 1016.7mb 39f 40f
5:36 9 11 mph 1016.6mb 39f 40f
5:30 11 13 mph 1016.6mb 39f 41f
5:24 13
mph
1016.4mb 39f 42f
5:18 10 11 mph 1016.4mb 39f 41f
5:12 11 13 mph 1016.3mb 39f 42f
5:06 11 14 mph 1016.2mb 39f 42f
5:00 13 14 mph 1016.1mb 39f 42f
4:54 13 14 mph 1016mb 39f 42f
4:48 11 14 mph 1015.8mb 39f 42f
4:42 11 13 mph 1015.7mb 39f 41f
4:36 9 11 mph 1015.5mb 39f 41f
4:30 10 13 mph 1015.4mb 39f 42f
4:24 9 10 mph 1015.3mb 39f 43f
4:18 7
mph
1015.2mb 39f 42f
4:12 7 8 mph 1015mb 39f 42f
4:06 8 9 mph 1014.9mb 39f 42f
4:00 8 9 mph 1014.7mb 39f 43f
3:54 8 9 mph 1014.6mb 39f 43f
3:48 8 9 mph 1014.5mb 39f 43f
3:42 8 10 mph 1014.5mb 38f 43f
3:36 9 10 mph 1014.4mb 38f 43f
3:30 9 10 mph 1014.4mb 38f 43f
3:24 10
mph
1014.4mb 38f 43f
3:18 10 13 mph 1014.3mb 38f 42f
3:12 13 14 mph 1014.2mb 38f 43f
3:06 13 14 mph 1014.1mb 38f 43f
3:00 11 13 mph 1014mb 38f 44f
2:54 10 11 mph 1014mb 38f 44f
2:48 10 11 mph 1014mb 38f 44f
2:42 10
mph
1013.9mb 38f 44f
2:36 10 11 mph 1014mb 38f 44f
2:30 10
mph
1014mb 38f 44f
2:24 9 10 mph 1013.9mb 38f 44f
2:18 8 10 mph 1013.8mb 38f 44f
2:12 7 8 mph 1013.7mb 38f 44f
2:06 6 7 mph 1013.6mb 38f 44f
2:00 6 9 mph 1013.5mb 38f 44f
1:54 7 10 mph 1013.6mb 38f 44f
1:48 8 9 mph 1013.6mb 38f 44f
1:42 8 9 mph 1013.6mb 38f 44f
1:36 9 11 mph 1013.6mb 38f 44f
1:30 10 11 mph 1013.5mb 38f 44f
1:24 9 10 mph 1013.4mb 38f 44f
1:18 10 13 mph 1013.3mb 38f 44f
1:12 11 13 mph 1013.2mb 38f 45f
1:06 11 13 mph 1013.2mb 38f 45f
1:00 11 13 mph 1013.1mb 38f 44f
12:54 11 13 mph 1013mb 38f 44f
12:48 10 11 mph 1013mb 38f 44f
12:42 9 11 mph 1013mb 38f 44f
12:36 11 14 mph 1012.9mb 38f 44f
12:30 13 15 mph 1012.9mb 38f 45f
12:24 14 15 mph 1012.7mb 39f 45f
12:18 15 16 mph 1012.6mb 39f 45f
12:12 15 17 mph 1012.6mb 39f 45f
12:06 15 16 mph 1012.5mb 39f 46f
12:00 13 14 mph 1012.6mb 39f 46f
Dom 02/19 11:54 11 13 mph 1012.6mb 39f 45f
11:48 11 13 mph 1012.5mb 39f 46f
11:42 11 13 mph 1012.6mb 39f 45f
11:36 11 13 mph 1012.5mb 39f 46f
11:30 11 13 mph 1012.5mb 39f 46f
11:24 13 14 mph 1012.4mb 39f 46f
11:18 13 16 mph 1012.4mb 39f 46f
11:12 14 18 mph 1012.3mb 39f 46f
11:06 14 16 mph 1012.2mb 39f 46f
11:00 14 17 mph 1012.2mb 39f 47f
10:54 13 16 mph 1012.3mb 39f 47f
10:48 13 15 mph 1012.2mb 39f 47f
10:42 13 16 mph 1012.2mb 39f 47f
10:36 14 16 mph 1012.2mb 39f 47f
10:30 13 15 mph 1012.2mb 39f 47f
10:24 13 16 mph 1012.1mb 40f 47f
10:18 13 14 mph 1012.1mb 40f 47f
10:12 13 14 mph 1012.1mb 40f 47f
10:06 11 13 mph 1012.1mb 40f 47f
10:00 11 15 mph 1012.1mb 40f 48f
9:54 14 16 mph 1011.9mb 40f 48f
9:48 13 14 mph 1012.1mb 40f 48f
9:42 13 16 mph 1012mb 40f 49f
9:36 15 18 mph 1011.9mb 40f 49f
9:30 15 18 mph 1011.9mb 40f 49f
9:24 14 18 mph 1011.8mb 40f 49f
9:18 14 17 mph 1011.8mb 40f 49f
9:12 15 18 mph 1011.7mb 40f 49f
9:06 16 20 mph 1011.7mb 40f 49f
9:00 17 21 mph 1011.6mb 40f 50f
8:54 18 23 mph 1011.5mb 40f 50f
8:48 20 22 mph 1011.4mb 40f 50f
8:42 20 24 mph 1011.4mb 40f 50f
8:36 21 23 mph 1011.3mb 40f 50f
8:30 20 21 mph 1011.3mb 40f 50f
8:24 18 23 mph 1011.2mb 40f 50f
8:18 20 22 mph 1011.1mb 40f 50f
8:12 20 22 mph 1011.1mb 40f 50f
8:06 20 22 mph 1010.9mb 40f 50f
8:00 17 23 mph 1010.8mb 40f 50f
7:54 18 23 mph 1010.8mb 40f 51f
7:48 18 22 mph 1010.8mb 40f 51f
7:42 18 22 mph 1010.7mb 40f 51f
7:36 16 21 mph 1010.7mb 40f 52f
7:30 17 21 mph 1010.6mb 40f 51f
7:24 17 23 mph 1010.4mb 40f 51f
7:18 20 22 mph 1010.3mb 40f 52f
7:12 20 22 mph 1010.2mb 40f 52f
7:06 18 22 mph 1010.2mb 40f 52f
7:00 17 25 mph 1010.1mb 40f 52f
6:54 20 21 mph 1010mb 40f 53f
6:48 18 22 mph 1010mb 40f 53f
6:42 17 20 mph 1009.9mb 40f 53f
6:36 15 22 mph 1009.8mb 40f 53f
6:30 15 21 mph 1009.8mb 40f 54f
6:24 15 17 mph 1009.7mb 40f 53f
6:18 16 21 mph 1009.5mb 40f 54f
6:12 17 21 mph 1009.4mb 40f 54f
6:06 18 22 mph 1009.3mb 40f 55f
6:00 20 23 mph 1009.2mb 40f 54f
5:54 20 24 mph 1009mb 40f 55f
5:48 21 25 mph 1008.8mb 40f 55f
5:42 18 22 mph 1008.7mb 40f 56f
5:36 18 23 mph 1008.6mb 40f 56f
5:30 18 21 mph 1008.5mb 40f 56f
5:24 18 21 mph 1008.3mb 40f 56f
5:18 16 23 mph 1008.2mb 40f 56f
5:12 18 24 mph 1008.1mb 40f 57f
5:06 22 29 mph 1007.9mb 40f 57f
5:00 23 30 mph 1007.8mb 40f 58f
4:54 15 18 mph 1007.5mb 40f 57f
4:48 15 21 mph 1007.3mb 40f 58f
4:42 15 21 mph 1007.2mb 40f 58f
4:36 16 21 mph 1007.2mb 40f 58f
4:30 13 16 mph 1007.1mb 40f 59f
4:24 15 18 mph 1007mb 40f 59f
4:18 17 21 mph 1006.8mb 40f 59f
4:12 13 26 mph 1006.8mb 40f 58f
4:06 21 26 mph 1006.4mb 40f 60f
4:00 16 20 mph 1006.5mb 40f 60f
3:54 14 18 mph 1006.4mb 40f 60f
3:48 15 23 mph 1006.4mb 40f 59f
3:42 20 24 mph 1006.4mb 40f 59f
3:36 21 26 mph 1006.3mb 40f 59f
3:30 23 29 mph 1006.5mb 40f 60f
3:24 23 26 mph 1006.4mb 40f 60f
3:18 21 25 mph 1006.2mb 40f 59f
3:12 16 20 mph 1006.1mb 40f 60f
3:06 14 16 mph 1006.1mb 40f 60f
3:00 10 20 mph 1006mb 39f 58f
2:54 17 22 mph 1006.1mb 39f 60f
2:48 15 22 mph 1006.1mb 39f 58f
2:42 21 26 mph 1006.1mb 38f 58f
2:36 21 23 mph 1006mb 38f 59f
2:30 14 17 mph 1005.9mb 38f 59f
2:24 16 20 mph 1006mb 38f 59f
2:18 13 16 mph 1006mb 38f 57f
2:12 15 17 mph 1005.9mb 38f 56f
2:06 14 21 mph 1005.9mb 38f 58f
2:00 16 22 mph 1006mb 38f 57f
1:54 21 24 mph 1006mb 38f 57f
1:48 16 20 mph 1006mb 38f 58f
1:42 14 18 mph 1005.9mb 38f 56f
1:36 14 17 mph 1005.9mb 38f 58f
1:30 14 17 mph 1006mb 38f 58f
1:24 8 14 mph 1005.9mb 38f 58f
1:18 10 13 mph 1006mb 38f 57f
1:12 10 13 mph 1006.1mb 38f 57f
1:06 7 11 mph 1006.1mb 38f 55f
1:00 6 10 mph 1006.2mb 38f 56f
12:54 11 14 mph 1006.1mb 38f 55f
12:48 9 11 mph 1006.1mb 38f 56f
12:42 11 17 mph 1006.1mb 38f 56f
12:36 14 21 mph 1006.2mb 38f 55f
12:30 13 17 mph 1006.3mb 38f 55f
12:24 16 18 mph 1006.3mb 38f 56f
12:18 10 14 mph 1006.3mb 38f 55f
12:12 15 18 mph 1006.4mb 38f 54f
12:06 13 14 mph 1006.4mb 38f 56f
12:00 11 16 mph 1006.4mb 38f 55f
11:54 16 20 mph 1006.6mb 38f 56f
11:48 11 14 mph 1006.6mb 37f 55f
11:42 15 17 mph 1006.7mb 37f 55f
11:36 9 13 mph 1006.8mb 37f 54f
11:30 6 10 mph 1006.8mb 37f 54f
11:24 9 10 mph 1007mb 37f 53f
11:18 9 11 mph 1007mb 38f 53f
11:12 8 9 mph 1007.1mb 38f 54f
11:06 6 7 mph 1007mb 38f 53f
11:00 7 9 mph 1007.1mb 38f 54f
10:54 6 7 mph 1007.1mb 38f 54f
10:48 7 9 mph 1007mb 38f 54f
10:42 8 10 mph 1007.1mb 38f 53f
10:36 7 8 mph 1007mb 38f 54f
10:30 8 10 mph 1006.9mb 38f 53f
10:24 7 10 mph 1006.9mb 38f 53f
10:18 9 11 mph 1006.9mb 38f 53f
10:12 7 11 mph 1006.8mb 38f 53f
10:06 11 14 mph 1006.8mb 38f 52f
10:00 8 14 mph 1006.7mb 38f 52f
9:54 9 13 mph 1006.7mb 38f 52f
9:48 11 15 mph 1006.7mb 38f 52f
9:42 15 17 mph 1006.7mb 38f 52f
9:36 13 18 mph 1006.6mb 38f 52f
9:30 14 17 mph 1006.6mb 38f 52f
9:24 15 20 mph 1006.5mb 37f 53f
9:18 13 18 mph 1006.5mb 37f 52f
9:12 16 18 mph 1006.5mb 37f 52f
9:06 14 18 mph 1006.4mb 37f 52f
9:00 14 17 mph 1006.2mb 37f 52f
8:54 13 16 mph 1006.2mb 37f 51f
8:48 13 17 mph 1006.2mb 37f 51f
8:42 11 17 mph 1006.2mb 37f 51f
8:36 16 20 mph 1006.2mb 37f 51f
8:30 14 18 mph 1006mb 37f 50f
8:24 15 20 mph 1006mb 37f 50f
8:18 15 20 mph 1005.9mb 37f 50f
8:12 13 16 mph 1005.9mb 37f 50f
8:06 14 16 mph 1005.9mb 37f 50f
8:00 14 17 mph 1005.8mb 37f 50f
7:54 14 16 mph 1005.8mb 37f 50f
7:48 14 17 mph 1005.8mb 37f 50f
7:42 14 16 mph 1005.8mb 37f 50f
7:36 13 16 mph 1005.7mb 37f 50f
7:30 13 16 mph 1005.7mb 37f 50f
7:24 14 17 mph 1005.7mb 37f 49f
7:18 15 20 mph 1005.7mb 37f 49f
7:12 15 18 mph 1005.7mb 37f 49f
7:06 14 16 mph 1005.7mb 37f 49f
7:00 14 17 mph 1005.6mb 37f 49f
6:54 15 17 mph 1005.5mb 37f 49f
6:48 15 20 mph 1005.5mb 37f 49f
6:42 14 18 mph 1005.5mb 37f 49f
6:36 14 17 mph 1005.5mb 37f 49f
6:30 14 15 mph 1005.4mb 37f 49f
6:24 10 13 mph 1005.4mb 37f 47f
6:18 11 14 mph 1005.3mb 37f 47f
6:12 13 15 mph 1005.3mb 37f 47f
6:06 11 13 mph 1005.2mb 37f 47f
6:00 8 10 mph 1005.1mb 37f 46f
5:54 8 9 mph 1005.1mb 37f 44f
5:48 8 10 mph 1005mb 37f 45f
5:42 10 13 mph 1005mb 37f 47f
5:36 11 13 mph 1004.9mb 37f 47f
5:30 10 14 mph 1004.9mb 37f 47f
5:24 13 15 mph 1004.8mb 37f 47f
5:18 14
mph
1004.7mb 37f 46f
5:12 13 15 mph 1004.7mb 37f 46f
5:06 14 15 mph 1004.5mb 37f 46f
5:00 14 15 mph 1004.5mb 37f 46f
4:54 13 14 mph 1004.4mb 37f 46f
4:48 11
mph
1004.4mb 37f 45f
4:42 8 9 mph 1004.3mb 37f 44f
4:36 8 9 mph 1004.2mb 37f 43f
4:30 8 9 mph 1004.1mb 37f 43f
4:24 3 6 mph 1004mb 37f 42f
4:18 6 8 mph 1004mb 37f 44f
4:12 7 9 mph 1003.9mb 37f 45f
4:06 7 8 mph 1003.8mb 37f 44f
4:00 3 6 mph 1003.6mb 37f 44f
3:54 6 9 mph 1003.5mb 37f 42f
3:48 9 11 mph 1003.4mb 37f 44f
3:42 11 14 mph 1003.4mb 37f 44f
3:36 13
mph
1003.3mb 37f 44f
3:30 13 14 mph 1003.2mb 37f 45f
3:24 14 15 mph 1003.1mb 37f 44f
3:18 15 16 mph 1003mb 37f 44f
3:12 15
mph
1002.8mb 37f 44f
3:06 15 16 mph 1002.8mb 37f 43f
3:00 15 17 mph 1002.7mb 37f 44f
2:54 16 17 mph 1002.6mb 37f 44f
2:48 17 18 mph 1002.5mb 37f 44f
2:42 18 20 mph 1002.5mb 37f 43f
2:36 20
mph
1002.4mb 37f 42f
2:30 18 20 mph 1002.3mb 37f 42f
2:24 18 20 mph 1002.3mb 37f 41f
2:18 20
mph
1002.3mb 37f 42f
2:12 20 21 mph 1002.2mb 37f 42f
2:06 21
mph
1002.1mb 37f 42f
2:00 21
mph
1002mb 37f 42f
1:54 21 22 mph 1001.9mb 37f 42f
1:48 21 22 mph 1001.9mb 37f 42f
1:42 21
mph
1001.8mb 37f 43f
1:36 20
mph
1001.8mb 37f 43f
1:30 17 18 mph 1001.8mb 37f 43f
1:24 15 16 mph 1001.8mb 37f 42f
1:18 16 17 mph 1001.8mb 37f 42f
1:12 15 16 mph 1001.8mb 37f 41f
1:06 14 15 mph 1001.8mb 37f 41f
1:00 13
mph
1001.8mb 37f 41f
12:54 10 11 mph 1001.9mb 37f 41f
12:48 8 11 mph 1001.9mb 37f 42f
12:42 11 15 mph 1001.9mb 37f 41f
12:36 15 17 mph 1001.8mb 37f 41f
12:30 16 17 mph 1001.7mb 37f 42f
12:24 16 17 mph 1001.7mb 37f 42f
12:18 16
mph
1001.8mb 37f 42f
12:12 16
mph
1001.8mb 37f 42f
12:06 14 15 mph 1001.8mb 37f 41f
12:00 15 16 mph 1001.9mb 37f 41f
Sáb 02/18 11:54 15 18 mph 1001.8mb 37f 40f
11:48 18 21 mph 1001.7mb 37f 41f
11:42 20 21 mph 1001.6mb 37f 41f
11:36 20 21 mph 1001.5mb 37f 41f
11:30 20 21 mph 1001.5mb 37f 41f
11:24 20 21 mph 1001.6mb 37f 41f
11:18 18 21 mph 1001.7mb 37f 40f
11:12 20 21 mph 1001.6mb 37f 41f
11:06 20
mph
1001.6mb 37f 41f
11:00 20 21 mph 1001.7mb 37f 41f
10:54 20 21 mph 1001.7mb 37f 41f
10:48 21 22 mph 1001.7mb 37f 41f
10:42 20 23 mph 1001.7mb 37f 42f
10:36 22 23 mph 1001.6mb 37f 42f
10:30 23 24 mph 1001.7mb 37f 42f
10:24 23
mph
1001.7mb 37f 42f
10:18 22 23 mph 1001.8mb 37f 42f
10:12 22
mph
1001.9mb 37f 42f
10:06 21 23 mph 1001.9mb 37f 42f
10:00 20 21 mph 1002mb 37f 41f
9:54 17 18 mph 1002mb 37f 40f
9:48 18 20 mph 1002.1mb 37f 41f
9:42 20 21 mph 1002.1mb 37f 41f
9:36 18 21 mph 1002.1mb 37f 41f
9:30 20 21 mph 1002.1mb 37f 41f
9:24 21
mph
1002.1mb 37f 41f
9:18 21 22 mph 1002.1mb 37f 41f
9:12 21 22 mph 1002.1mb 37f 41f
9:06 22
mph
1002.2mb 37f 42f
9:00 21 22 mph 1002.2mb 37f 42f
8:54 22 23 mph 1002.3mb 37f 42f
8:48 21 22 mph 1002.3mb 37f 42f
8:42 21 22 mph 1002.3mb 37f 42f
8:36 22
mph
1002.4mb 37f 42f
8:30 20 21 mph 1002.4mb 37f 42f
8:24 18 20 mph 1002.5mb 37f 42f
8:18 20 21 mph 1002.5mb 37f 42f
8:12 20
mph
1002.5mb 37f 42f
8:06 20 21 mph 1002.5mb 37f 42f
8:00 20
mph
1002.5mb 37f 42f
7:54 17 18 mph 1002.5mb 37f 42f
7:48 17 18 mph 1002.5mb 37f 42f
7:42 16 17 mph 1002.5mb 37f 42f
7:36 17 18 mph 1002.6mb 37f 43f
7:30 17 18 mph 1002.7mb 37f 42f
7:24 17
mph
1002.7mb 37f 42f
7:18 16 18 mph 1002.7mb 37f 42f
7:12 17
mph
1002.5mb 37f 41f
7:06 16 18 mph 1002.5mb 37f 42f
7:00 16 17 mph 1002.5mb 37f 42f
6:54 15 17 mph 1002.4mb 37f 42f
6:48 17 20 mph 1002.5mb 37f 42f
6:42 17 18 mph 1002.5mb 37f 42f
6:36 16 18 mph 1002.6mb 37f 42f
6:30 17 18 mph 1002.6mb 37f 41f
6:24 16 17 mph 1002.6mb 37f 42f
6:18 17 18 mph 1002.7mb 37f 43f
6:12 16 18 mph 1002.6mb 37f 44f
6:06 17 22 mph 1002.6mb 37f 44f
6:00 20 23 mph 1002.5mb 37f 44f
5:54 20 21 mph 1002.5mb 37f 43f
5:48 20 21 mph 1002.4mb 37f 42f
5:42 18 20 mph 1002.6mb 37f 42f
5:36 17 18 mph 1002.7mb 37f 42f
5:30 17 18 mph 1002.9mb 37f 43f
5:24 14 15 mph 1002.9mb 37f 43f
5:18 13 16 mph 1002.9mb 37f 44f
5:12 15 17 mph 1002.9mb 37f 45f
5:06 14 16 mph 1003mb 37f 44f
5:00 15 18 mph 1003mb 37f 45f
4:54 16 21 mph 1003mb 37f 46f
4:48 18 21 mph 1003.2mb 37f 47f
4:42 16 20 mph 1003.1mb 37f 46f
4:36 15 18 mph 1003.3mb 37f 47f
4:30 11 22 mph 1003.3mb 37f 45f
4:24 15 20 mph 1002.9mb 37f 45f
4:18 15 18 mph 1002.8mb 37f 44f
4:12 14 18 mph 1002.8mb 37f 44f
4:06 16 18 mph 1002.9mb 37f 45f
4:00 16 18 mph 1002.9mb 37f 44f
3:54 15 16 mph 1002.9mb 37f 44f
3:48 15 18 mph 1002.9mb 37f 44f
3:42 15 20 mph 1003mb 37f 44f
3:36 16 22 mph 1003.1mb 37f 46f
3:30 18 22 mph 1003.1mb 37f 46f
3:24 22 24 mph 1002.9mb 37f 47f
3:18 17 23 mph 1003.2mb 37f 48f
3:12 20 22 mph 1003.1mb 37f 47f
3:06 18 21 mph 1003.2mb 37f 47f
3:00 18 22 mph 1003.3mb 37f 47f
2:54 20 22 mph 1003.2mb 37f 47f
2:48 20 24 mph 1003.5mb 37f 48f
2:42 15 20 mph 1003.7mb 37f 47f
2:36 18 22 mph 1003.7mb 37f 47f
2:30 15 24 mph 1003.8mb 37f 47f
2:24 18 28 mph 1003.9mb 37f 47f
2:18 22 26 mph 1004.3mb 37f 47f
2:12 17 22 mph 1004.1mb 37f 47f
2:06 20 22 mph 1004.1mb 37f 46f
2:00 22 25 mph 1004.2mb 37f 46f
1:54 18 28 mph 1004.6mb 36f 46f
1:48 21 25 mph 1005.1mb 36f 46f
1:42 23 28 mph 1005.1mb 36f 46f
1:36 25 29 mph 1005.2mb 36f 45f
1:30 24 26 mph 1005mb 36f 45f
1:24 20 25 mph 1005.3mb 36f 46f
1:18 22 29 mph 1005.7mb 36f 46f
1:12 24 30 mph 1005.8mb 37f 46f
1:06 20 28 mph 1005.7mb 37f 46f
1:00 22 32 mph 1005.9mb 37f 44f
12:54 20 24 mph 1006mb 37f 45f
12:48 18 22 mph 1006mb 37f 42f
12:42 20 26 mph 1006.2mb 36f 44f
12:36 21 24 mph 1006.2mb 36f 42f
12:30 21 28 mph 1006.1mb 36f 42f
12:24 22 26 mph 1006.4mb 36f 42f
12:18 22 25 mph 1006.2mb 36f 42f
12:12 24 28 mph 1006.3mb 36f 42f
12:06 24 26 mph 1006.3mb 36f 42f
12:00 23 25 mph 1006.7mb 36f 42f
11:54 21 24 mph 1006.8mb 36f 42f
11:48 22 23 mph 1007.1mb 36f 42f
11:42 21 25 mph 1007.4mb 36f 43f
11:36 22 26 mph 1007.5mb 36f 43f
11:30 21 23 mph 1007.7mb 36f 42f
11:24 18 21 mph 1007.7mb 36f 42f
11:18 17 21 mph 1007.8mb 36f 40f
11:12 16 17 mph 1008mb 36f 40f
11:06 15 18 mph 1008mb 36f 40f
11:00 16 17 mph 1008.1mb 36f 40f
10:54 15 18 mph 1008.1mb 36f 39f
10:48 16 18 mph 1008.3mb 35f 40f
10:42 18 21 mph 1008.3mb 35f 40f
10:36 16 20 mph 1008.6mb 35f 40f
10:30 16 20 mph 1008.6mb 35f 39f
10:24 17 21 mph 1008.7mb 35f 40f
10:18 16 18 mph 1009mb 35f 39f
10:12 16 18 mph 1009mb 35f 38f
10:06 16 18 mph 1009.1mb 35f 38f
10:00 16 18 mph 1009.2mb 35f 38f
9:54 16 18 mph 1009.4mb 35f 38f
9:48 15 17 mph 1009.5mb 35f 38f
9:42 15 17 mph 1009.5mb 35f 37f
9:36 14 16 mph 1009.5mb 35f 37f
9:30 14 16 mph 1009.7mb 35f 36f
9:24 13 14 mph 1009.7mb 35f 35f
9:18 14
mph
1009.8mb 35f 35f
9:12 13 14 mph 1009.8mb 35f 35f
9:06 10 11 mph 1010mb 35f 36f
9:00 11 13 mph 1010.2mb 35f 36f
8:54 9 10 mph 1010.3mb 35f 35f
8:48 7 10 mph 1010.2mb 35f 35f
8:42 5 7 mph 1010.1mb 35f 34f
8:36 5 6 mph 1010.2mb 35f 33f
8:30 3 5 mph 1010.5mb 35f 33f
8:24 5 6 mph 1010.6mb 35f 32f
8:18 6 8 mph 1010.6mb 35f 32f
8:12 7 8 mph 1010.5mb 35f 32f
8:06 8
mph
1010.6mb 35f 31f
8:00 6 7 mph 1010.6mb 35f 31f
7:54 6 8 mph 1010.5mb 35f 31f
7:48 5 8 mph 1010.5mb 35f 31f
7:42 9 11 mph 1010.7mb 35f 31f
7:36 10 13 mph 1010.9mb 35f 31f
7:30 11 13 mph 1010.8mb 35f 31f
7:24 11 14 mph 1010.8mb 35f 31f
7:18 11 14 mph 1010.9mb 36f 31f
7:12 10 11 mph 1010.7mb 36f 31f
7:06 9 10 mph 1010.6mb 36f 31f
7:00 9
mph
1010.7mb 36f 31f
6:54 7 8 mph 1010.6mb 36f 31f
6:48 5 6 mph 1010.4mb 36f 31f
6:42 5 6 mph 1010.5mb 36f 30f
6:36 3 5 mph 1010.3mb 36f 30f
6:30 3 5 mph 1010.5mb 35f 30f
6:24 2 3 mph 1010.6mb 35f 29f
6:18 1 5 mph 1010.7mb 35f 29f
6:12 3 5 mph 1010.7mb 35f 30f
6:06 5 6 mph 1010.6mb 35f 30f
6:00 6 7 mph 1010.6mb 35f 30f
5:54 6 7 mph 1010.5mb 35f 31f
5:48 6 7 mph 1010.5mb 35f 30f
5:42 5 6 mph 1010.5mb 36f 30f
5:36 5 6 mph 1010.5mb 36f 29f
5:30 6 7 mph 1010.6mb 36f 29f
5:24 7 8 mph 1010.7mb 36f 29f
5:18 8 9 mph 1010.7mb 36f 29f
5:12 6 7 mph 1010.6mb 36f 30f
5:06 6
mph
1010.5mb 36f 30f
5:00 6
mph
1010.4mb 36f 30f
4:54 5 6 mph 1010.5mb 36f 30f
4:48 6
mph
1010.7mb 36f 30f
4:42 5 6 mph 1010.4mb 36f 30f
4:36 6 7 mph 1010.4mb 36f 30f
4:30 6 7 mph 1010.6mb 36f 30f
4:24 3 6 mph 1010.5mb 36f 30f
4:18 5 6 mph 1010.5mb 36f 30f
4:12 5 6 mph 1010.6mb 36f 30f
4:06 5 7 mph 1010.7mb 36f 30f
4:00 6 9 mph 1010.8mb 36f 30f
3:54 8 9 mph 1010.9mb 36f 30f
3:48 6 7 mph - - -
3:42 7
mph
1010.7mb 36f 30f
3:36 5
mph
1010.8mb 36f 30f
3:30 1 2 mph 1010.7mb 36f 30f
3:24 2 3 mph 1010.9mb 36f 30f
3:18 2 5 mph 1011mb 36f 30f
3:12 6 7 mph 1011.1mb 36f 30f
3:06 5 7 mph 1011.1mb 36f 30f
3:00 5 6 mph 1011.1mb 36f 30f
2:54 6 7 mph 1011.2mb 36f 29f
2:48 6 7 mph 1011.2mb 36f 30f
2:42 5 7 mph 1011.2mb 36f 30f
2:36 7 9 mph 1011.3mb 36f 30f
2:30 8 10 mph 1011.3mb 36f 30f
2:24 8 9 mph 1011.3mb 36f 30f
2:18 6 7 mph 1011.2mb 36f 30f
2:12 6 8 mph 1011.1mb 36f 30f
2:06 5 6 mph 1011mb 36f 30f
2:00 6 7 mph 1010.9mb 36f 30f
1:54 6
mph
1011mb 36f 30f
1:48 5 7 mph 1011.2mb 36f -
1:42 6 9 mph 1011.2mb 36f -
1:36 7 10 mph 1011.2mb 36f -
1:30 8 10 mph 1011.2mb 36f 30f
1:24 8 9 mph 1011mb 36f 30f
1:18 8 10 mph 1010.9mb 36f 30f
1:12 8 9 mph 1010.8mb 36f 30f
1:06 7
mph
1010.7mb 36f 30f
1:00 5 6 mph 1010.6mb 36f 30f
12:54 6 7 mph 1010.5mb 36f 30f
12:48 6 7 mph 1010.5mb 36f 30f
12:42 3 5 mph 1010.4mb 36f 30f
12:36 3 5 mph 1010.5mb 36f 30f
12:30 2 3 mph 1010.4mb 36f 30f
12:24 3 5 mph 1010.5mb 36f 30f
12:18 5 6 mph 1010.5mb 36f 30f
12:12 5 6 mph 1010.4mb 36f 30f
12:06 6 7 mph 1010.3mb 36f 30f
12:00 6
mph
1010.4mb 36f 30f
Sex 02/17 11:54 5 6 mph 1010.3mb 36f 30f
11:48 5 7 mph 1010.2mb 36f 30f
11:42 6 7 mph 1010.2mb 36f 31f
11:36 5 6 mph 1010.1mb 36f 31f
11:30 3 5 mph 1010.1mb 36f 31f
11:24 2 5 mph 1010mb 36f 31f
11:18 5 6 mph 1010mb 36f 31f
11:12 5 6 mph 1009.9mb 36f 31f
11:06 5 6 mph 1009.9mb 36f 31f
11:00 5
mph
1009.9mb 36f 31f
10:54 2 5 mph 1009.8mb 36f 31f
10:48 5 7 mph 1009.8mb 37f 31f
10:42 7 9 mph 1009.7mb 37f 31f
10:36 8 10 mph 1009.6mb 37f 31f
10:30 9 10 mph 1009.7mb 37f 31f
10:24 8 10 mph 1009.8mb 37f 31f
10:18 9 10 mph 1009.8mb 37f 32f
10:12 8 11 mph 1009.7mb 37f 32f
10:06 9
mph
1009.8mb 37f 32f
10:00 7 9 mph 1009.9mb 37f 32f
9:54 8 9 mph 1009.8mb 37f 32f
9:48 7 9 mph 1009.5mb 37f 32f
9:42 9 10 mph 1009.4mb 37f 32f
9:36 9 11 mph 1009.2mb 37f 32f
9:30 8 9 mph 1009.1mb 37f 32f
9:24 8 10 mph 1009mb 37f 32f
9:18 9 13 mph 1009.1mb 37f 32f
9:12 10 11 mph 1009.1mb 37f 33f
9:06 9 10 mph 1009.2mb 37f 33f
9:00 7 8 mph 1009.2mb 37f 33f
8:54 7 8 mph 1009.2mb 37f 33f
8:48 7 8 mph 1009.2mb 37f 34f
8:42 7 9 mph 1009.2mb 37f 34f
8:36 9 10 mph 1009.2mb 37f 35f
8:30 8 11 mph 1009.1mb 37f 35f
8:24 9 13 mph 1009.1mb 37f 35f
8:18 7 10 mph 1009.1mb 37f 35f
8:12 8 11 mph 1009.2mb 37f 35f
8:06 9 11 mph 1009.1mb 37f 35f
8:00 10 13 mph 1009mb 36f 35f
7:54 10 11 mph 1008.9mb 36f 36f
7:48 10 13 mph 1008.8mb 36f 36f
7:42 10 13 mph 1008.7mb 36f 36f
7:36 13 16 mph 1008.6mb 36f 36f
7:30 11 15 mph 1008.4mb 37f 36f
7:24 15 17 mph 1008.3mb 37f 36f
7:18 14 18 mph 1008.3mb 37f 36f
7:12 15 20 mph 1008.3mb 37f 37f
7:06 16 20 mph 1008.2mb 37f 37f
7:00 15 17 mph 1008.2mb 37f 37f
6:54 16 20 mph 1008mb 37f 37f
6:48 17 20 mph 1007.9mb 37f 37f
6:42 17 20 mph 1007.9mb 37f 37f
6:36 16 20 mph 1007.9mb 37f 37f
6:30 16 20 mph 1007.8mb 37f 37f
6:24 14 16 mph 1007.6mb 37f 37f
6:18 15 20 mph 1007.6mb 37f 37f
6:12 17 20 mph 1007.5mb 37f 37f
6:06 15 21 mph 1007.5mb 37f 37f
6:00 15 17 mph 1007.4mb 37f 38f
5:54 15 18 mph 1007.3mb 37f 38f
5:48 14 18 mph 1007.4mb 37f 38f
5:42 15 18 mph 1007.2mb 37f 38f
5:36 18 20 mph 1007.2mb 37f 38f
5:30 16 20 mph 1007.1mb 37f 38f
5:24 16 23 mph 1007.1mb 37f 38f
5:18 16 22 mph 1006.8mb 37f 38f
5:12 18 22 mph 1006.8mb 37f 39f
5:06 15 17 mph 1006.7mb 37f 39f
5:00 16 22 mph 1006.6mb 37f 39f
4:54 20 22 mph 1006.4mb 37f 39f
4:48 18 23 mph 1006.3mb 37f 39f
4:42 16 20 mph 1006.2mb 37f 40f
4:36 16 21 mph 1006.1mb 37f 39f
4:30 16 21 mph 1006mb 37f 39f
4:24 17 22 mph 1005.9mb 37f 39f
4:18 17 20 mph 1005.7mb 37f 39f
4:12 18 22 mph 1005.6mb 36f 39f
4:06 18 21 mph 1005.6mb 36f 39f
4:00 17 21 mph 1005.5mb 36f 39f
3:54 20 22 mph 1005.5mb 36f 39f
3:48 17 21 mph 1005.5mb 36f 39f
3:42 16 21 mph 1005.5mb 36f 39f
3:36 14 17 mph 1005.4mb 36f 39f
3:30 17 20 mph 1005.4mb 36f 39f
3:24 17 21 mph 1005.3mb 36f 39f
3:18 14 18 mph 1005.3mb 36f 39f
3:12 18 21 mph 1005.2mb 36f 39f
3:06 15 22 mph 1005.3mb 36f 38f
3:00 17 22 mph 1005.2mb 36f 38f
2:54 16 18 mph 1005.3mb 36f 38f
2:48 16 24 mph 1005.3mb 36f 38f
2:42 21 24 mph 1005.3mb 36f 38f
2:36 21 24 mph 1005.3mb 36f 38f
2:30 17 22 mph 1005.3mb 36f 38f
2:24 17 21 mph 1005.2mb 36f 38f
2:18 18 22 mph 1005.3mb 36f 38f
2:12 15 20 mph 1005.3mb 36f 38f
2:06 15 18 mph 1005.3mb 36f 38f
2:00 16 18 mph 1005.3mb 36f 37f
1:54 15 18 mph 1005.2mb 36f 37f
1:48 15 17 mph 1005.3mb 36f 37f
1:42 16 21 mph 1005.4mb 36f 37f
1:36 18 21 mph 1005.4mb 36f 37f
1:30 16 20 mph 1005.4mb 36f 37f
1:24 16 21 mph 1005.4mb 36f 36f
1:18 17 21 mph 1005.4mb 36f 36f
1:12 16 20 mph 1005.3mb 36f 36f
1:06 17 20 mph 1005.4mb 36f 36f
1:00 13 21 mph 1005.3mb 36f 36f
12:54 17 21 mph 1005.3mb 36f 35f
12:48 15 21 mph 1005.3mb 36f 35f
12:42 17 22 mph 1005.3mb 36f 35f
12:36 16 20 mph 1005.3mb 36f 35f
12:30 16 22 mph 1005.4mb 36f 35f
12:24 20 23 mph 1005.4mb 36f 34f
12:18 18 23 mph 1005.4mb 36f 34f
12:12 18 23 mph 1005.4mb 36f 34f
12:06 21 23 mph 1005.4mb 36f 34f
12:00 20 22 mph 1005.4mb 36f 34f
11:54 21 25 mph 1005.4mb 36f 33f
11:48 15 21 mph 1005.5mb 36f 33f
11:42 21 23 mph 1005.6mb 36f 33f
11:36 22 26 mph 1005.6mb 36f 33f
11:30 21 25 mph 1005.7mb 36f 33f
11:24 20 22 mph 1005.8mb 36f 33f
11:18 17 21 mph 1005.9mb 36f 33f
11:12 17 21 mph 1006mb 36f 32f
11:06 21 26 mph 1006mb 36f 32f
11:00 21 23 mph 1006mb 35f 32f
10:54 22 24 mph 1006.1mb 35f 32f
10:48 22 29 mph 1006mb 35f 31f
10:42 23 26 mph 1005.9mb 35f 32f
10:36 21 25 mph 1005.9mb 36f 31f
10:30 21 25 mph 1006mb 36f 31f
10:24 21 26 mph 1006mb 36f 31f
10:18 22 25 mph 1006mb 35f 31f
10:12 21 28 mph 1006mb 35f 30f
10:06 21 25 mph 1006mb 35f 30f
10:00 21 28 mph 1006mb 35f 30f
9:54 24 31 mph 1006mb 35f 30f
9:48 18 26 mph 1006.1mb 35f 30f
9:42 20 24 mph 1006mb 35f 29f
9:36 16 20 mph 1006.1mb 35f 29f
9:30 20 23 mph 1006mb 35f 29f
9:24 17 21 mph 1005.9mb 35f 29f
9:18 16 20 mph 1006mb 35f 28f
9:12 18 21 mph 1006mb 35f 28f
9:06 16 23 mph 1006.1mb 35f 28f
9:00 22 25 mph 1006mb 35f 28f
8:54 15 18 mph 1006.1mb 35f 28f
8:48 16 22 mph 1006.1mb 35f 28f
8:42 20 21 mph 1006.1mb 35f 27f
8:36 20 25 mph 1006.1mb 35f 27f
8:30 18 24 mph 1006.2mb 35f 28f
8:24 18 26 mph 1006.2mb 35f 27f
8:18 17 22 mph 1006.2mb 35f 27f
8:12 16 22 mph 1006.2mb 35f 27f
8:06 18 21 mph 1006.2mb 35f 27f
8:00 16 21 mph 1006.2mb 35f 26f
7:54 18 23 mph 1006.1mb 35f 26f
7:48 18 22 mph 1006.1mb 35f 26f
7:42 14 17 mph 1006.1mb 35f 26f
7:36 14 17 mph 1006.1mb 35f 26f
7:30 13 17 mph 1006.1mb 35f 26f
7:24 14 17 mph 1006mb 35f 25f
7:18 11 15 mph 1006mb 35f 25f
7:12 13 15 mph 1005.9mb 35f 25f
7:06 10 15 mph 1005.9mb 35f 25f
7:00 10 14 mph 1005.9mb 35f 25f
6:54 11 14 mph 1005.8mb 35f 25f
6:48 14 17 mph 1005.6mb 35f 25f
6:42 15 18 mph 1005.6mb 36f 25f
6:36 15 18 mph 1005.5mb 36f 25f
6:30 15 18 mph 1005.5mb 36f 25f
6:24 14 16 mph 1005.6mb 36f 25f
6:18 14 17 mph 1005.5mb 36f 25f
6:12 14 17 mph 1005.6mb 36f 25f
6:06 14 15 mph 1005.5mb 36f 25f
6:00 13 16 mph 1005.5mb 36f 25f
5:54 13 16 mph 1005.5mb 36f 25f
5:48 13 16 mph 1005.5mb 36f 25f
5:42 14 18 mph 1005.4mb 36f 25f
5:36 14 15 mph 1005.4mb 36f 25f
5:30 13 15 mph 1005.4mb 36f 25f
5:24 11 14 mph 1005.3mb 36f 25f
5:18 11 14 mph 1005.3mb 36f 25f
5:12 13 18 mph 1005.3mb 36f 25f
5:06 13 16 mph 1005.2mb 36f 25f
5:00 14 20 mph 1005mb 36f 25f
4:54 14 16 mph 1004.9mb 36f 25f
4:48 13 18 mph 1004.8mb 36f 25f
4:42 16 18 mph 1004.8mb 36f 25f
4:36 16 22 mph 1004.7mb 36f 25f
4:30 17 21 mph 1004.7mb 36f 25f
4:24 16 20 mph 1004.7mb 36f 25f
4:18 17 25 mph 1004.6mb 36f 26f
4:12 17 21 mph 1004.5mb 36f 25f
4:06 18 23 mph 1004.6mb 36f 25f
4:00 17 22 mph 1004.5mb 36f 25f
3:54 16 20 mph 1004.4mb 36f 26f
3:48 16 18 mph 1004.4mb 36f 25f
3:42 16 20 mph 1004.3mb 36f 25f
3:36 16 21 mph 1004.2mb 36f 25f
3:30 16 20 mph 1004.1mb 36f 25f
3:24 20 23 mph 1004.1mb 36f 26f
3:18 17 23 mph 1004.3mb 36f 25f